Time,TemperatureF,DewpointF,PressureIn,WindDirection,WindDirectionDegrees,WindSpeedMPH,WindSpeedGustMPH,Humidity,HourlyPrecipIn,Conditions,Clouds,dailyrainin,SoftwareType,DateUTC
2013-05-08 00:01:00,56.0,32.0,-100.00,NNE,17,9.0,17.0,39,0.00,,,0.00,,2013-05-08 06:01:00,
2013-05-08 00:11:00,56.0,32.0,-100.00,NNE,17,9.0,17.0,39,0.00,,,0.00,,2013-05-08 06:11:00,
2013-05-08 00:41:00,54.0,31.0,-100.00,NNE,14,8.0,12.0,42,0.00,,,0.00,,2013-05-08 06:41:00,
2013-05-08 00:52:00,54.0,31.0,-100.00,NNE,14,8.0,12.0,42,0.00,,,0.00,,2013-05-08 06:52:00,
2013-05-08 01:01:00,54.0,31.0,-100.00,NNE,14,8.0,12.0,42,0.00,,,0.00,,2013-05-08 07:01:00,
2013-05-08 01:11:00,54.0,31.0,-100.00,NNE,14,8.0,12.0,42,0.00,,,0.00,,2013-05-08 07:11:00,
2013-05-08 01:42:00,53.0,32.0,-100.00,North,352,10.0,14.0,45,0.00,,,-99.99,,2013-05-08 07:42:00,
2013-05-08 01:52:00,53.0,32.0,-100.00,North,352,10.0,14.0,45,0.00,,,-99.99,,2013-05-08 07:52:00,
2013-05-08 02:01:00,53.0,32.0,-100.00,North,352,10.0,14.0,45,0.00,,,-99.99,,2013-05-08 08:01:00,
2013-05-08 02:11:00,53.0,32.0,-100.00,North,352,10.0,14.0,45,0.00,,,-99.99,,2013-05-08 08:11:00,
2013-05-08 02:42:00,51.0,32.0,-100.00,NNW,348,10.0,14.0,49,0.01,,,0.00,,2013-05-08 08:42:00,
2013-05-08 02:52:00,51.0,32.0,-100.00,NNW,348,10.0,14.0,49,0.01,,,0.00,,2013-05-08 08:52:00,
2013-05-08 03:02:00,51.0,32.0,-100.00,NNW,348,10.0,14.0,49,0.01,,,0.00,,2013-05-08 09:02:00,
2013-05-08 03:11:00,51.0,32.0,-100.00,NNW,348,10.0,14.0,49,0.01,,,0.00,,2013-05-08 09:11:00,
2013-05-08 03:42:00,49.0,32.0,-100.00,NNW,346,8.0,12.0,50,0.00,,,0.00,,2013-05-08 09:42:00,
2013-05-08 03:53:00,49.0,32.0,-100.00,NNW,346,8.0,12.0,50,0.00,,,0.00,,2013-05-08 09:53:00,
2013-05-08 04:02:00,49.0,32.0,-100.00,NNW,346,8.0,12.0,50,0.00,,,0.00,,2013-05-08 10:02:00,
2013-05-08 04:12:00,49.0,32.0,-100.00,NNW,346,8.0,12.0,50,0.00,,,0.00,,2013-05-08 10:12:00,
2013-05-08 04:42:00,44.0,31.0,-100.00,North,358,5.0,7.0,61,0.00,,,0.00,,2013-05-08 10:42:00,
2013-05-08 04:52:00,44.0,31.0,-100.00,North,358,5.0,7.0,61,0.00,,,0.00,,2013-05-08 10:52:00,
2013-05-08 05:02:00,44.0,31.0,-100.00,North,358,5.0,7.0,61,0.00,,,0.00,,2013-05-08 11:02:00,
2013-05-08 05:11:00,44.0,31.0,-100.00,North,358,5.0,7.0,61,0.00,,,0.00,,2013-05-08 11:11:00,
2013-05-08 05:42:00,37.0,30.0,-100.00,South,175,4.0,5.0,77,0.00,,,0.00,,2013-05-08 11:42:00,
2013-05-08 05:52:00,37.0,30.0,-100.00,South,175,4.0,5.0,77,0.00,,,0.00,,2013-05-08 11:52:00,
2013-05-08 06:01:00,37.0,30.0,-100.00,South,175,4.0,5.0,77,0.00,,,0.00,,2013-05-08 12:01:00,
2013-05-08 06:11:00,37.0,30.0,-100.00,South,175,4.0,5.0,77,0.00,,,0.00,,2013-05-08 12:11:00,
2013-05-08 06:41:00,33.0,29.0,-100.00,South,188,4.0,5.0,85,0.00,,,0.00,,2013-05-08 12:41:00,
2013-05-08 06:52:00,33.0,29.0,-100.00,South,188,4.0,5.0,85,0.00,,,0.00,,2013-05-08 12:52:00,
2013-05-08 07:01:00,33.0,29.0,-100.00,South,188,4.0,5.0,85,0.00,,,0.00,,2013-05-08 13:01:00,
2013-05-08 07:11:00,33.0,29.0,-100.00,South,188,4.0,5.0,85,0.00,,,0.00,,2013-05-08 13:11:00,
2013-05-08 07:42:00,41.0,32.0,-100.00,SSW,196,3.0,5.0,72,0.00,,,0.00,,2013-05-08 13:42:00,
2013-05-08 07:52:00,41.0,32.0,-100.00,SSW,196,3.0,5.0,72,0.00,,,0.00,,2013-05-08 13:52:00,
2013-05-08 08:02:00,41.0,32.0,-100.00,SSW,196,3.0,5.0,72,0.00,,,0.00,,2013-05-08 14:02:00,
2013-05-08 08:11:00,41.0,32.0,-100.00,SSW,196,3.0,5.0,72,0.00,,,0.00,,2013-05-08 14:11:00,
2013-05-08 08:42:00,47.0,35.0,-100.00,SSW,195,5.0,7.0,62,0.00,,,0.00,,2013-05-08 14:42:00,
2013-05-08 08:52:00,47.0,35.0,-100.00,SSW,195,5.0,7.0,62,0.00,,,0.00,,2013-05-08 14:52:00,
2013-05-08 09:01:00,47.0,35.0,-100.00,SSW,195,5.0,7.0,62,0.00,,,0.00,,2013-05-08 15:01:00,
2013-05-08 09:11:00,47.0,35.0,-100.00,SSW,195,5.0,7.0,62,0.00,,,0.00,,2013-05-08 15:11:00,
2013-05-08 09:42:00,53.0,34.0,-100.00,South,187,4.0,10.0,47,0.00,,,0.00,,2013-05-08 15:42:00,
2013-05-08 09:53:00,53.0,34.0,-100.00,South,187,4.0,10.0,47,0.00,,,0.00,,2013-05-08 15:53:00,
2013-05-08 10:03:00,53.0,34.0,-100.00,South,187,4.0,10.0,47,0.00,,,0.00,,2013-05-08 16:03:00,
2013-05-08 10:12:00,53.0,34.0,-100.00,South,187,4.0,10.0,47,0.00,,,0.00,,2013-05-08 16:12:00,
2013-05-08 10:42:00,57.0,34.0,-100.00,East,99,4.0,7.0,42,0.00,,,0.00,,2013-05-08 16:42:00,
2013-05-08 10:52:00,57.0,34.0,-100.00,East,99,4.0,7.0,42,0.00,,,0.00,,2013-05-08 16:52:00,
2013-05-08 11:02:00,57.0,34.0,-100.00,East,99,4.0,7.0,42,0.00,,,0.00,,2013-05-08 17:02:00,
2013-05-08 11:11:00,57.0,34.0,-100.00,East,99,4.0,7.0,42,0.00,,,0.00,,2013-05-08 17:11:00,
2013-05-08 12:42:00,65.0,35.0,-100.00,South,178,3.0,6.0,32,0.00,,,0.00,,2013-05-08 18:42:00,
2013-05-08 12:52:00,65.0,35.0,-100.00,South,178,3.0,6.0,32,0.00,,,0.00,,2013-05-08 18:52:00,
2013-05-08 13:01:00,65.0,35.0,-100.00,South,178,3.0,6.0,32,0.00,,,0.00,,2013-05-08 19:01:00,
2013-05-08 13:11:00,65.0,35.0,-100.00,South,178,3.0,6.0,32,0.00,,,0.00,,2013-05-08 19:11:00,
2013-05-08 13:42:00,69.0,33.0,-100.00,SW,219,3.0,9.0,26,0.01,,,0.01,,2013-05-08 19:42:00,
2013-05-08 13:52:00,69.0,33.0,-100.00,SW,219,3.0,9.0,26,0.01,,,0.01,,2013-05-08 19:52:00,
2013-05-08 14:01:00,69.0,33.0,-100.00,SW,219,3.0,9.0,26,0.01,,,0.01,,2013-05-08 20:01:00,
2013-05-08 14:11:00,69.0,33.0,-100.00,SW,219,3.0,9.0,26,0.01,,,0.01,,2013-05-08 20:11:00,
2013-05-08 14:42:00,72.0,28.0,-100.00,NNE,21,5.0,12.0,20,-99.99,,,0.00,,2013-05-08 20:42:00,
2013-05-08 14:52:00,72.0,28.0,-100.00,NNE,21,5.0,12.0,20,-99.99,,,0.00,,2013-05-08 20:52:00,
2013-05-08 15:01:00,72.0,28.0,-100.00,NNE,21,5.0,12.0,20,-99.99,,,0.00,,2013-05-08 21:01:00,
2013-05-08 15:11:00,72.0,28.0,-100.00,NNE,21,5.0,12.0,20,-99.99,,,0.00,,2013-05-08 21:11:00,
2013-05-08 15:43:00,73.0,24.0,-100.00,ENE,76,6.0,12.0,16,0.00,,,0.00,,2013-05-08 21:43:00,
2013-05-08 15:53:00,73.0,24.0,-100.00,ENE,76,6.0,12.0,16,0.00,,,0.00,,2013-05-08 21:53:00,
2013-05-08 16:02:00,73.0,24.0,-100.00,ENE,76,6.0,12.0,16,0.00,,,0.00,,2013-05-08 22:02:00,
2013-05-08 16:12:00,73.0,24.0,-100.00,ENE,76,6.0,12.0,16,0.00,,,0.00,,2013-05-08 22:12:00,
2013-05-08 16:42:00,73.0,30.0,-100.00,ESE,112,6.0,23.0,20,0.00,,,0.00,,2013-05-08 22:42:00,
2013-05-08 16:52:00,73.0,30.0,-100.00,ESE,112,6.0,23.0,20,0.00,,,0.00,,2013-05-08 22:52:00,
2013-05-08 17:01:00,73.0,30.0,-100.00,ESE,112,6.0,23.0,20,0.00,,,0.00,,2013-05-08 23:01:00,
2013-05-08 17:11:00,73.0,30.0,-100.00,ESE,112,6.0,23.0,20,0.00,,,0.00,,2013-05-08 23:11:00,
2013-05-08 17:42:00,72.0,30.0,-100.00,SE,140,5.0,12.0,21,0.00,,,0.00,,2013-05-08 23:42:00,
2013-05-08 17:52:00,72.0,30.0,-100.00,SE,140,5.0,12.0,21,0.00,,,0.00,,2013-05-08 23:52:00,
2013-05-08 18:02:00,72.0,30.0,-100.00,SE,140,5.0,12.0,21,0.00,,,0.00,,2013-05-09 00:02:00,
2013-05-08 18:11:00,72.0,30.0,-100.00,SE,140,5.0,12.0,21,0.00,,,0.00,,2013-05-09 00:11:00,
2013-05-08 18:42:00,73.0,29.0,-100.00,South,182,5.0,10.0,19,0.00,,,0.00,,2013-05-09 00:42:00,
2013-05-08 18:52:00,73.0,29.0,-100.00,South,182,5.0,10.0,19,0.00,,,0.00,,2013-05-09 00:52:00,
2013-05-08 19:01:00,73.0,29.0,-100.00,South,182,5.0,10.0,19,0.00,,,0.00,,2013-05-09 01:01:00,
2013-05-08 19:11:00,73.0,29.0,-100.00,South,182,5.0,10.0,19,0.00,,,0.00,,2013-05-09 01:11:00,
2013-05-08 19:42:00,68.0,30.0,-100.00,East,85,12.0,23.0,24,0.00,,,0.00,,2013-05-09 01:42:00,
2013-05-08 19:52:00,68.0,30.0,-100.00,East,85,12.0,23.0,24,0.00,,,0.00,,2013-05-09 01:52:00,
2013-05-08 20:02:00,68.0,30.0,-100.00,East,85,12.0,23.0,24,0.00,,,0.00,,2013-05-09 02:02:00,
2013-05-08 20:11:00,68.0,30.0,-100.00,East,85,12.0,23.0,24,0.00,,,0.00,,2013-05-09 02:11:00,
2013-05-08 21:01:00,67.0,27.0,-100.00,SSW,200,6.0,12.0,22,0.00,,,0.00,,2013-05-09 03:01:00,
2013-05-08 21:11:00,67.0,27.0,-100.00,SSW,200,6.0,12.0,22,0.00,,,0.00,,2013-05-09 03:11:00,
2013-05-08 21:43:00,58.0,37.0,-100.00,WSW,247,7.0,13.0,45,0.00,,,0.00,,2013-05-09 03:43:00,
2013-05-08 21:53:00,58.0,37.0,-100.00,WSW,247,7.0,13.0,45,0.00,,,0.00,,2013-05-09 03:53:00,
2013-05-08 22:03:00,58.0,37.0,-100.00,WSW,247,7.0,13.0,45,0.00,,,0.00,,2013-05-09 04:03:00,
2013-05-08 22:12:00,58.0,37.0,-100.00,WSW,247,7.0,13.0,45,0.00,,,0.00,,2013-05-09 04:12:00,
2013-05-08 22:43:00,50.0,37.0,-100.00,South,178,5.0,7.0,60,0.00,,,0.00,,2013-05-09 04:43:00,
2013-05-08 22:53:00,50.0,37.0,-100.00,South,178,5.0,7.0,60,0.00,,,0.00,,2013-05-09 04:53:00,
2013-05-08 23:02:00,50.0,37.0,-100.00,South,178,5.0,7.0,60,0.00,,,0.00,,2013-05-09 05:02:00,
2013-05-08 23:11:00,50.0,37.0,-100.00,South,178,5.0,7.0,60,0.00,,,0.00,,2013-05-09 05:11:00,
2013-05-08 23:42:00,50.0,38.0,-100.00,WSW,251,2.0,5.0,63,0.00,,,0.00,,2013-05-09 05:42:00,
2013-05-08 23:52:00,50.0,38.0,-100.00,WSW,251,2.0,5.0,63,0.00,,,0.00,,2013-05-09 05:52:00,